createdAt,value
2023-01-11T00:00:29.611Z,974.99
2023-01-11T00:01:29.696Z,975.02
2023-01-11T00:02:29.732Z,975.01
2023-01-11T00:03:29.744Z,974.99
2023-01-11T00:04:30.717Z,974.98
2023-01-11T00:05:29.830Z,974.94
2023-01-11T00:06:29.923Z,974.92
2023-01-11T00:07:29.906Z,974.92
2023-01-11T00:08:29.959Z,974.98
2023-01-11T00:09:30.000Z,974.99
2023-01-11T00:10:30.060Z,974.96
2023-01-11T00:11:30.086Z,974.97
2023-01-11T00:12:30.127Z,974.97
2023-01-11T00:13:30.164Z,974.97
2023-01-11T00:14:30.209Z,974.95
2023-01-11T00:15:30.276Z,974.93
2023-01-11T00:16:30.865Z,974.88
2023-01-11T00:17:30.331Z,974.90
2023-01-11T00:18:30.375Z,974.88
2023-01-11T00:19:30.443Z,974.90
2023-01-11T00:20:30.517Z,974.86
2023-01-11T00:21:30.501Z,974.89
2023-01-11T00:22:30.541Z,974.91
2023-01-11T00:23:30.589Z,974.90
2023-01-11T00:24:30.641Z,974.88
2023-01-11T00:25:30.761Z,974.86
2023-01-11T00:26:30.767Z,974.88
2023-01-11T00:27:30.758Z,974.87
2023-01-11T00:28:30.803Z,974.84
2023-01-11T00:29:30.836Z,974.83
2023-01-11T00:30:30.912Z,974.76
2023-01-11T00:31:30.963Z,974.70
2023-01-11T00:32:30.967Z,974.76
2023-01-11T00:33:31.876Z,974.78
2023-01-11T00:34:31.050Z,974.79
2023-01-11T00:35:31.119Z,974.78
2023-01-11T00:36:31.146Z,974.77
2023-01-11T00:37:31.179Z,974.77
2023-01-11T00:38:31.225Z,974.77
2023-01-11T00:39:31.267Z,974.78
2023-01-11T00:40:31.320Z,974.75
2023-01-11T00:41:31.344Z,974.77
2023-01-11T00:42:31.381Z,974.72
2023-01-11T00:43:31.439Z,974.76
2023-01-11T00:44:31.497Z,974.81
2023-01-11T00:45:31.519Z,974.84
2023-01-11T00:46:31.578Z,974.83
2023-01-11T00:47:31.612Z,974.78
2023-01-11T00:48:31.634Z,974.77
2023-01-11T00:49:31.709Z,974.74
2023-01-11T00:50:31.748Z,974.79
2023-01-11T00:51:31.771Z,974.78
2023-01-11T00:52:31.813Z,974.82
2023-01-11T00:53:31.868Z,974.81
2023-01-11T00:54:32.878Z,974.77
2023-01-11T00:55:32.003Z,974.80
2023-01-11T00:56:31.982Z,974.83
2023-01-11T00:57:32.033Z,974.85
2023-01-11T00:58:32.055Z,974.77
2023-01-11T00:59:32.140Z,974.85
2023-01-11T01:00:32.158Z,974.85
2023-01-11T01:01:32.293Z,974.82
2023-01-11T01:02:32.276Z,974.86
2023-01-11T01:03:32.278Z,974.86
2023-01-11T01:04:32.340Z,974.91
2023-01-11T01:05:32.360Z,974.93
2023-01-11T01:06:32.421Z,974.93
2023-01-11T01:07:32.447Z,974.95
2023-01-11T01:08:32.528Z,974.94
2023-01-11T01:09:32.532Z,974.92
2023-01-11T01:10:32.572Z,974.99
2023-01-11T01:11:32.640Z,974.97
2023-01-11T01:12:32.653Z,974.96
2023-01-11T01:13:32.700Z,974.95
2023-01-11T01:14:32.737Z,974.94
2023-01-11T01:15:32.872Z,975.03
2023-01-11T01:16:32.844Z,974.95
2023-01-11T01:17:32.910Z,974.91
2023-01-11T01:18:32.929Z,974.98
2023-01-11T01:19:32.952Z,974.96
2023-01-11T01:20:33.000Z,974.98
2023-01-11T01:21:33.038Z,974.98
2023-01-11T01:22:33.115Z,974.99
2023-01-11T01:23:33.121Z,974.98
2023-01-11T01:24:33.164Z,974.93
2023-01-11T01:25:33.209Z,974.92
2023-01-11T01:26:33.245Z,974.96
2023-01-11T01:27:33.316Z,974.91
2023-01-11T01:28:33.333Z,974.90
2023-01-11T01:29:33.394Z,974.89
2023-01-11T01:30:33.414Z,974.89
2023-01-11T01:31:33.507Z,974.87
2023-01-11T01:32:33.532Z,974.82
2023-01-11T01:33:33.560Z,974.87
2023-01-11T01:34:33.581Z,974.85
2023-01-11T01:35:33.638Z,974.86
2023-01-11T01:36:33.667Z,974.87
2023-01-11T01:37:33.739Z,974.85
2023-01-11T01:38:33.751Z,974.84
2023-01-11T01:39:33.793Z,974.79
2023-01-11T01:40:33.843Z,974.80
2023-01-11T01:41:33.913Z,974.77
2023-01-11T01:42:33.944Z,974.81
2023-01-11T01:43:33.974Z,974.77
2023-01-11T01:44:34.017Z,974.76
2023-01-11T01:45:34.054Z,974.78
2023-01-11T01:46:34.298Z,974.78
2023-01-11T01:47:34.137Z,974.76
2023-01-11T01:48:34.188Z,974.76
2023-01-11T01:49:34.219Z,974.75
2023-01-11T01:50:34.288Z,974.75
2023-01-11T01:51:34.311Z,974.73
2023-01-11T01:52:34.380Z,974.73
2023-01-11T01:53:34.391Z,974.77
2023-01-11T01:54:34.445Z,974.74
2023-01-11T01:55:34.483Z,974.74
2023-01-11T01:56:34.553Z,974.73
2023-01-11T01:57:34.573Z,974.74
2023-01-11T01:58:34.603Z,974.72
2023-01-11T01:59:34.668Z,974.73
2023-01-11T02:00:34.690Z,974.68
2023-01-11T02:01:34.834Z,974.66
2023-01-11T02:02:34.846Z,974.65
2023-01-11T02:03:34.839Z,974.63
2023-01-11T02:04:34.860Z,974.63
2023-01-11T02:05:34.912Z,974.61
2023-01-11T02:06:35.063Z,974.61
2023-01-11T02:07:35.001Z,974.63
2023-01-11T02:08:35.039Z,974.59
2023-01-11T02:09:35.081Z,974.65
2023-01-11T02:10:35.134Z,974.67
2023-01-11T02:11:35.188Z,974.67
2023-01-11T02:12:35.209Z,974.64
2023-01-11T02:13:35.252Z,974.62
2023-01-11T02:14:35.296Z,974.63
2023-01-11T02:15:35.360Z,974.61
2023-01-11T02:16:35.387Z,974.56
2023-01-11T02:17:35.427Z,974.51
2023-01-11T02:18:35.457Z,974.45
2023-01-11T02:19:35.506Z,974.45
2023-01-11T02:20:35.585Z,974.47
2023-01-11T02:21:35.600Z,974.48
2023-01-11T02:22:35.658Z,974.45
2023-01-11T02:23:35.685Z,974.43
2023-01-11T02:24:35.714Z,974.41
2023-01-11T02:25:35.755Z,974.39
2023-01-11T02:26:35.821Z,974.39
2023-01-11T02:27:35.863Z,974.37
2023-01-11T02:28:35.891Z,974.34
2023-01-11T02:29:35.940Z,974.33
2023-01-11T02:30:35.976Z,974.35
2023-01-11T02:31:36.142Z,974.30
2023-01-11T02:32:36.090Z,974.30
2023-01-11T02:33:36.098Z,974.32
2023-01-11T02:34:36.147Z,974.31
2023-01-11T02:35:36.206Z,974.30
2023-01-11T02:36:36.243Z,974.25
2023-01-11T02:37:36.266Z,974.28
2023-01-11T02:38:36.363Z,974.27
2023-01-11T02:39:36.362Z,974.23
2023-01-11T02:40:36.435Z,974.22
2023-01-11T02:41:36.472Z,974.21
2023-01-11T02:42:36.528Z,974.25
2023-01-11T02:43:37.391Z,974.20
2023-01-11T02:44:36.579Z,974.17
2023-01-11T02:45:36.618Z,974.19
2023-01-11T02:46:36.675Z,974.14
2023-01-11T02:47:36.737Z,974.11
2023-01-11T02:48:36.757Z,974.12
2023-01-11T02:49:36.795Z,974.04
2023-01-11T02:50:36.826Z,974.09
2023-01-11T02:51:36.874Z,974.08
2023-01-11T02:52:36.957Z,974.07
2023-01-11T02:53:36.971Z,974.08
2023-01-11T02:54:37.908Z,974.10
2023-01-11T02:55:39.882Z,974.12
2023-01-11T02:56:37.098Z,974.02
2023-01-11T02:57:37.161Z,974.02
2023-01-11T02:58:37.170Z,974.11
2023-01-11T02:59:37.227Z,974.09
2023-01-11T03:00:37.251Z,974.09
2023-01-11T03:01:37.914Z,974.05
2023-01-11T03:02:37.394Z,974.02
2023-01-11T03:03:37.405Z,974.02
2023-01-11T03:04:37.438Z,973.97
2023-01-11T03:05:37.480Z,974.01
2023-01-11T03:06:37.609Z,973.92
2023-01-11T03:07:37.576Z,973.90
2023-01-11T03:08:38.410Z,973.89
2023-01-11T03:09:37.661Z,973.88
2023-01-11T03:10:37.691Z,973.88
2023-01-11T03:11:37.751Z,973.81
2023-01-11T03:12:37.769Z,973.81
2023-01-11T03:13:37.871Z,973.82
2023-01-11T03:14:38.382Z,973.82
2023-01-11T03:15:37.896Z,973.76
2023-01-11T03:16:37.935Z,973.74
2023-01-11T03:17:37.998Z,973.72
2023-01-11T03:18:38.018Z,973.71
2023-01-11T03:19:38.896Z,973.72
2023-01-11T03:20:38.131Z,973.67
2023-01-11T03:21:38.168Z,973.67
2023-01-11T03:22:38.186Z,973.67
2023-01-11T03:23:38.264Z,973.64
2023-01-11T03:24:38.286Z,973.60
2023-01-11T03:25:38.317Z,973.58
2023-01-11T03:26:38.887Z,973.53
2023-01-11T03:27:38.401Z,973.56
2023-01-11T03:28:38.463Z,973.51
2023-01-11T03:29:38.486Z,973.48
2023-01-11T03:30:38.569Z,973.50
2023-01-11T03:31:38.660Z,973.40
2023-01-11T03:32:39.396Z,973.41
2023-01-11T03:33:39.384Z,973.41
2023-01-11T03:34:38.699Z,973.49
2023-01-11T03:35:38.790Z,973.42
2023-01-11T03:36:38.802Z,973.36
2023-01-11T03:37:38.827Z,973.40
2023-01-11T03:38:38.875Z,973.40
2023-01-11T03:39:38.953Z,973.40
2023-01-11T03:40:38.960Z,973.33
2023-01-11T03:41:39.035Z,973.34
2023-01-11T03:42:39.049Z,973.37
2023-01-11T03:43:39.091Z,973.33
2023-01-11T03:44:39.130Z,973.36
2023-01-11T03:45:39.160Z,973.32
2023-01-11T03:46:39.287Z,973.30
2023-01-11T03:47:39.279Z,973.26
2023-01-11T03:48:39.329Z,973.26
2023-01-11T03:49:39.337Z,973.25
2023-01-11T03:50:39.383Z,973.34
2023-01-11T03:51:39.419Z,973.24
2023-01-11T03:52:39.491Z,973.19
2023-01-11T03:53:39.516Z,973.13
2023-01-11T03:54:39.556Z,973.17
2023-01-11T03:55:39.593Z,973.15
2023-01-11T03:56:39.631Z,973.17
2023-01-11T03:57:39.706Z,973.18
2023-01-11T03:58:40.400Z,973.21
2023-01-11T03:59:39.767Z,973.21
2023-01-11T04:00:39.852Z,973.17
2023-01-11T04:01:39.873Z,973.19
2023-01-11T04:02:39.908Z,973.16
2023-01-11T04:03:39.938Z,973.15
2023-01-11T04:04:40.034Z,973.13
2023-01-11T04:05:40.044Z,973.10
2023-01-11T04:06:40.147Z,973.07
2023-01-11T04:07:40.109Z,973.09
2023-01-11T04:08:40.150Z,973.12
2023-01-11T04:09:40.197Z,973.13
2023-01-11T04:10:40.233Z,973.07
2023-01-11T04:11:40.297Z,973.06
2023-01-11T04:12:40.313Z,973.11
2023-01-11T04:13:40.366Z,973.12
2023-01-11T04:14:40.406Z,973.07
2023-01-11T04:15:40.441Z,973.08
2023-01-11T04:16:40.540Z,973.03
2023-01-11T04:17:41.394Z,973.06
2023-01-11T04:18:40.568Z,973.07
2023-01-11T04:19:40.651Z,973.05
2023-01-11T04:20:40.664Z,972.98
2023-01-11T04:21:40.730Z,973.01
2023-01-11T04:22:40.745Z,973.01
2023-01-11T04:23:40.833Z,973.00
2023-01-11T04:24:40.862Z,973.02
2023-01-11T04:25:40.877Z,973.02
2023-01-11T04:26:40.912Z,972.95
2023-01-11T04:27:40.964Z,972.96
2023-01-11T04:28:41.030Z,972.95
2023-01-11T04:29:41.070Z,973.00
2023-01-11T04:30:41.909Z,972.96
2023-01-11T04:31:41.169Z,972.98
2023-01-11T04:32:41.173Z,972.95
2023-01-11T04:33:41.215Z,972.92
2023-01-11T04:34:41.281Z,972.91
2023-01-11T04:35:41.300Z,972.91
2023-01-11T04:36:41.383Z,972.91
2023-01-11T04:37:41.387Z,972.93
2023-01-11T04:38:42.408Z,972.93
2023-01-11T04:39:41.478Z,972.92
2023-01-11T04:40:41.533Z,972.94
2023-01-11T04:41:41.554Z,972.92
2023-01-11T04:42:41.599Z,972.92
2023-01-11T04:43:41.679Z,972.91
2023-01-11T04:44:41.746Z,972.92
2023-01-11T04:45:41.756Z,972.93
2023-01-11T04:46:41.761Z,972.91
2023-01-11T04:47:41.827Z,972.88
2023-01-11T04:48:41.877Z,972.91
2023-01-11T04:49:41.896Z,972.89
2023-01-11T04:50:42.063Z,972.89
2023-01-11T04:51:41.982Z,972.88
2023-01-11T04:52:42.026Z,972.84
2023-01-11T04:53:42.087Z,972.83
2023-01-11T04:54:42.200Z,972.87
2023-01-11T04:55:42.187Z,972.84
2023-01-11T04:56:42.189Z,972.85
2023-01-11T04:57:42.232Z,972.87
2023-01-11T04:58:42.278Z,972.87
2023-01-11T04:59:42.319Z,972.84
2023-01-11T05:00:42.465Z,972.79
2023-01-11T05:01:43.408Z,972.80
2023-01-11T05:02:42.471Z,972.80
2023-01-11T05:03:42.577Z,972.80
2023-01-11T05:04:42.544Z,972.77
2023-01-11T05:05:42.589Z,972.80
2023-01-11T05:06:42.638Z,972.85
2023-01-11T05:07:42.693Z,972.85
2023-01-11T05:08:42.704Z,972.89
2023-01-11T05:09:42.741Z,972.84
2023-01-11T05:10:42.783Z,972.87
2023-01-11T05:11:42.826Z,972.87
2023-01-11T05:12:42.917Z,972.86
2023-01-11T05:13:42.971Z,972.87
2023-01-11T05:14:42.954Z,972.87
2023-01-11T05:15:43.026Z,972.86
2023-01-11T05:16:43.133Z,972.83
2023-01-11T05:17:44.605Z,972.84
2023-01-11T05:18:43.131Z,972.87
2023-01-11T05:19:43.194Z,972.86
2023-01-11T05:20:43.210Z,972.83
2023-01-11T05:21:43.256Z,972.87
2023-01-11T05:22:43.323Z,972.85
2023-01-11T05:23:43.328Z,972.87
2023-01-11T05:24:43.379Z,972.90
2023-01-11T05:25:43.420Z,972.94
2023-01-11T05:26:43.489Z,972.94
2023-01-11T05:27:43.504Z,972.96
2023-01-11T05:28:43.565Z,972.98
2023-01-11T05:29:43.580Z,972.96
2023-01-11T05:30:43.623Z,972.95
2023-01-11T05:31:43.710Z,972.92
2023-01-11T05:32:43.712Z,972.91
2023-01-11T05:33:43.747Z,972.89
2023-01-11T05:34:43.791Z,972.87
2023-01-11T05:35:43.833Z,972.85
2023-01-11T05:36:43.906Z,972.77
2023-01-11T05:37:44.907Z,972.78
2023-01-11T05:38:43.961Z,972.74
2023-01-11T05:39:43.998Z,972.73
2023-01-11T05:40:44.049Z,972.80
2023-01-11T05:41:44.135Z,972.76
2023-01-11T05:42:44.129Z,972.79
2023-01-11T05:43:44.177Z,972.84
2023-01-11T05:44:44.917Z,972.83
2023-01-11T05:45:44.314Z,972.81
2023-01-11T05:46:44.326Z,972.88
2023-01-11T05:47:44.372Z,972.87
2023-01-11T05:48:44.394Z,972.89
2023-01-11T05:49:44.431Z,972.84
2023-01-11T05:50:45.406Z,972.90
2023-01-11T05:51:44.512Z,972.84
2023-01-11T05:52:44.579Z,972.84
2023-01-11T05:53:44.595Z,972.79
2023-01-11T05:54:44.672Z,972.84
2023-01-11T05:55:44.686Z,972.80
2023-01-11T05:56:44.730Z,972.74
2023-01-11T05:57:44.786Z,972.74
2023-01-11T05:58:44.813Z,972.68
2023-01-11T05:59:44.851Z,972.71
2023-01-11T06:00:44.888Z,972.67
2023-01-11T06:01:44.984Z,972.68
2023-01-11T06:02:45.089Z,972.67
2023-01-11T06:03:45.015Z,972.69
2023-01-11T06:04:45.066Z,972.71
2023-01-11T06:05:46.063Z,972.70
2023-01-11T06:06:45.251Z,972.70
2023-01-11T06:07:45.189Z,972.68
2023-01-11T06:08:45.239Z,972.71
2023-01-11T06:09:45.286Z,972.72
2023-01-11T06:10:45.313Z,972.77
2023-01-11T06:11:45.387Z,972.77
2023-01-11T06:12:45.423Z,972.81
2023-01-11T06:13:45.463Z,972.81
2023-01-11T06:14:46.400Z,972.79
2023-01-11T06:15:45.534Z,972.79
2023-01-11T06:16:45.667Z,972.79
2023-01-11T06:17:45.608Z,972.79
2023-01-11T06:18:45.663Z,972.80
2023-01-11T06:19:45.728Z,972.78
2023-01-11T06:20:45.739Z,972.80
2023-01-11T06:21:45.790Z,972.82
2023-01-11T06:22:45.820Z,972.81
2023-01-11T06:23:45.888Z,972.81
2023-01-11T06:24:45.933Z,972.80
2023-01-11T06:25:45.972Z,972.80
2023-01-11T06:26:46.908Z,972.78
2023-01-11T06:27:46.035Z,972.73
2023-01-11T06:28:46.076Z,972.74
2023-01-11T06:29:46.124Z,972.76
2023-01-11T06:30:46.212Z,972.66
2023-01-11T06:31:46.204Z,972.67
2023-01-11T06:32:46.247Z,972.72
2023-01-11T06:33:46.910Z,972.71
2023-01-11T06:34:46.327Z,972.70
2023-01-11T06:35:46.411Z,972.70
2023-01-11T06:36:46.453Z,972.71
2023-01-11T06:37:46.462Z,972.72
2023-01-11T06:38:46.530Z,972.71
2023-01-11T06:39:46.543Z,972.69
2023-01-11T06:40:46.593Z,972.73
2023-01-11T06:41:46.658Z,972.74
2023-01-11T06:42:46.677Z,972.69
2023-01-11T06:43:46.708Z,972.70
2023-01-11T06:44:46.756Z,972.65
2023-01-11T06:45:46.830Z,972.66
2023-01-11T06:46:46.871Z,972.61
2023-01-11T06:47:46.880Z,972.62
2023-01-11T06:48:46.920Z,972.67
2023-01-11T06:49:46.991Z,972.69
2023-01-11T06:50:47.015Z,972.69
2023-01-11T06:51:47.095Z,972.74
2023-01-11T06:52:47.096Z,972.70
2023-01-11T06:53:47.174Z,972.65
2023-01-11T06:54:47.173Z,972.63
2023-01-11T06:55:47.216Z,972.61
2023-01-11T06:56:47.268Z,972.57
2023-01-11T06:57:47.314Z,972.56
2023-01-11T06:58:47.760Z,972.60
2023-01-11T06:59:47.385Z,972.59
2023-01-11T07:00:47.436Z,972.61
2023-01-11T07:01:48.495Z,972.65
2023-01-11T07:02:47.513Z,972.64
2023-01-11T07:03:47.582Z,972.63
2023-01-11T07:04:47.746Z,972.65
2023-01-11T07:05:47.651Z,972.65
2023-01-11T07:06:47.711Z,972.66
2023-01-11T07:07:47.737Z,972.66
2023-01-11T07:08:47.794Z,972.64
2023-01-11T07:09:47.812Z,972.59
2023-01-11T07:10:47.900Z,972.60
2023-01-11T07:11:47.895Z,972.61
2023-01-11T07:12:47.942Z,972.62
2023-01-11T07:13:47.995Z,972.62
2023-01-11T07:14:48.021Z,972.63
2023-01-11T07:15:48.136Z,972.66
2023-01-11T07:16:48.136Z,972.67
2023-01-11T07:17:48.161Z,972.64
2023-01-11T07:18:48.203Z,972.67
2023-01-11T07:19:48.233Z,972.64
2023-01-11T07:20:48.287Z,972.68
2023-01-11T07:21:48.345Z,972.66
2023-01-11T07:22:48.371Z,972.69
2023-01-11T07:23:48.444Z,972.68
2023-01-11T07:24:48.543Z,972.68
2023-01-11T07:25:48.495Z,972.71
2023-01-11T07:26:48.529Z,972.74
2023-01-11T07:27:48.592Z,972.70
2023-01-11T07:28:48.644Z,972.65
2023-01-11T07:29:48.659Z,972.55
2023-01-11T07:30:58.351Z,972.52
2023-01-11T07:31:48.790Z,972.56
2023-01-11T07:32:48.782Z,972.59
2023-01-11T07:33:48.829Z,972.61
2023-01-11T07:34:48.888Z,972.66
2023-01-11T07:35:48.912Z,972.62
2023-01-11T07:36:48.993Z,972.61
2023-01-11T07:37:49.012Z,972.67
2023-01-11T07:38:49.045Z,972.79
2023-01-11T07:39:49.085Z,972.81
2023-01-11T07:40:49.129Z,972.78
2023-01-11T07:41:49.199Z,972.76
2023-01-11T07:42:49.209Z,972.76
2023-01-11T07:43:49.289Z,972.70
2023-01-11T07:44:49.304Z,972.69
2023-01-11T07:45:50.121Z,972.68
2023-01-11T07:46:49.473Z,972.70
2023-01-11T07:47:49.433Z,972.66
2023-01-11T07:48:49.497Z,972.64
2023-01-11T07:49:49.519Z,972.63
2023-01-11T07:50:49.568Z,972.58
2023-01-11T07:51:49.629Z,972.57
2023-01-11T07:52:49.646Z,972.55
2023-01-11T07:53:49.678Z,972.55
2023-01-11T07:54:49.732Z,972.56
2023-01-11T07:55:49.760Z,972.59
2023-01-11T07:56:49.832Z,972.62
2023-01-11T07:57:49.852Z,972.62
2023-01-11T07:58:49.890Z,972.58
2023-01-11T07:59:49.941Z,972.56
2023-01-11T08:00:49.984Z,972.58
2023-01-11T08:01:50.052Z,972.58
2023-01-11T08:02:50.989Z,972.54
2023-01-11T08:03:50.122Z,972.54
2023-01-11T08:04:50.146Z,972.51
2023-01-11T08:05:50.226Z,972.53
2023-01-11T08:06:50.238Z,972.54
2023-01-11T08:07:50.273Z,972.54
2023-01-11T08:08:50.318Z,972.49
2023-01-11T08:09:50.362Z,972.47
2023-01-11T08:10:50.428Z,972.47
2023-01-11T08:11:50.447Z,972.41
2023-01-11T08:12:51.611Z,972.42
2023-01-11T08:13:50.540Z,972.39
2023-01-11T08:14:50.604Z,972.39
2023-01-11T08:15:50.813Z,972.43
2023-01-11T08:16:50.676Z,972.46
2023-01-11T08:17:50.723Z,972.44
2023-01-11T08:18:50.756Z,972.39
2023-01-11T08:19:50.807Z,972.40
2023-01-11T08:20:50.871Z,972.44
2023-01-11T08:21:50.884Z,972.42
2023-01-11T08:22:50.964Z,972.47
2023-01-11T08:23:50.976Z,972.47
2023-01-11T08:24:51.021Z,972.42
2023-01-11T08:25:51.057Z,972.38
2023-01-11T08:26:51.173Z,972.40
2023-01-11T08:27:51.156Z,972.39
2023-01-11T08:28:51.226Z,972.40
2023-01-11T08:29:51.221Z,972.35
2023-01-11T08:30:51.301Z,972.39
2023-01-11T08:31:51.314Z,972.34
2023-01-11T08:32:51.930Z,972.30
2023-01-11T08:33:51.424Z,972.28
2023-01-11T08:34:51.460Z,972.26
2023-01-11T08:35:51.491Z,972.25
2023-01-11T08:36:51.605Z,972.27
2023-01-11T08:37:51.596Z,972.26
2023-01-11T08:38:52.443Z,972.31
2023-01-11T08:39:51.664Z,972.32
2023-01-11T08:40:51.702Z,972.37
2023-01-11T08:41:51.810Z,972.34
2023-01-11T08:42:51.783Z,972.29
2023-01-11T08:43:51.827Z,972.27
2023-01-11T08:44:51.911Z,972.30
2023-01-11T08:45:51.920Z,972.29
2023-01-11T08:46:52.628Z,972.28
2023-01-11T08:47:52.217Z,972.21
2023-01-11T08:48:52.071Z,972.15
2023-01-11T08:49:52.919Z,972.19
2023-01-11T08:50:52.181Z,972.12
2023-01-11T08:51:52.941Z,972.11
2023-01-11T08:52:52.246Z,972.13
2023-01-11T08:53:52.264Z,972.18
2023-01-11T08:54:52.307Z,972.20
2023-01-11T08:55:52.362Z,972.19
2023-01-11T08:56:52.431Z,972.16
2023-01-11T08:57:52.467Z,972.27
2023-01-11T08:58:52.485Z,972.26
2023-01-11T08:59:52.527Z,972.25
2023-01-11T09:00:52.575Z,972.25
2023-01-11T09:01:52.686Z,972.29
2023-01-11T09:02:52.757Z,972.23
2023-01-11T09:03:52.723Z,972.25
2023-01-11T09:04:52.750Z,972.26
2023-01-11T09:05:52.813Z,972.24
2023-01-11T09:06:52.840Z,972.23
2023-01-11T09:07:52.916Z,972.22
2023-01-11T09:08:52.934Z,972.17
2023-01-11T09:09:52.989Z,972.29
2023-01-11T09:10:53.043Z,972.28
2023-01-11T09:11:53.098Z,972.25
2023-01-11T09:12:53.106Z,972.33
2023-01-11T09:13:53.195Z,972.33
2023-01-11T09:14:53.229Z,972.36
2023-01-11T09:15:53.296Z,972.39
2023-01-11T09:16:53.389Z,972.37
2023-01-11T09:17:53.332Z,972.36
2023-01-11T09:18:53.403Z,972.35
2023-01-11T09:19:53.987Z,972.35
2023-01-11T09:20:53.490Z,972.35
2023-01-11T09:21:53.575Z,972.37
2023-01-11T09:22:53.684Z,972.40
2023-01-11T09:23:53.653Z,972.47
2023-01-11T09:24:53.657Z,972.47
2023-01-11T09:25:54.461Z,972.50
2023-01-11T09:26:53.804Z,972.52
2023-01-11T09:27:53.879Z,972.53
2023-01-11T09:28:54.524Z,972.52
2023-01-11T09:29:53.869Z,972.45
2023-01-11T09:30:53.972Z,972.48
2023-01-11T09:31:53.963Z,972.52
2023-01-11T09:32:54.103Z,972.52
2023-01-11T09:33:54.090Z,972.51
2023-01-11T09:34:54.112Z,972.44
2023-01-11T09:35:54.164Z,972.47
2023-01-11T09:36:54.259Z,972.42
2023-01-11T09:37:54.269Z,972.39
2023-01-11T09:38:54.294Z,972.37
2023-01-11T09:39:54.316Z,972.42
2023-01-11T09:40:54.415Z,972.48
2023-01-11T09:41:54.495Z,972.53
2023-01-11T09:42:54.477Z,972.50
2023-01-11T09:43:54.542Z,972.51
2023-01-11T09:44:54.603Z,972.47
2023-01-11T09:45:54.622Z,972.49
2023-01-11T09:46:54.751Z,972.47
2023-01-11T09:47:54.759Z,972.48
2023-01-11T09:48:54.756Z,972.51
2023-01-11T09:49:54.805Z,972.51
2023-01-11T09:50:54.931Z,972.51
2023-01-11T09:51:54.856Z,972.48
2023-01-11T09:52:54.881Z,972.51
2023-01-11T09:53:54.950Z,972.51
2023-01-11T09:54:54.976Z,972.53
2023-01-11T09:55:55.023Z,972.52
2023-01-11T09:56:55.054Z,972.52
2023-01-11T09:57:55.199Z,972.49
2023-01-11T09:58:55.146Z,972.50
2023-01-11T09:59:55.232Z,972.50
2023-01-11T10:00:55.305Z,972.54
2023-01-11T10:01:55.307Z,972.53
2023-01-11T10:02:55.430Z,972.49
2023-01-11T10:03:55.381Z,972.53
2023-01-11T10:04:55.466Z,972.49
2023-01-11T10:05:56.470Z,972.51
2023-01-11T10:06:55.533Z,972.55
2023-01-11T10:18:22.583Z,972.45
2023-01-11T10:18:25.531Z,972.46
2023-01-11T10:18:26.166Z,972.47
2023-01-11T10:18:40.220Z,972.48
2023-01-11T10:19:19.623Z,972.47
2023-01-11T10:19:56.154Z,972.41
2023-01-11T10:20:56.191Z,972.44
2023-01-11T10:21:56.310Z,972.47
2023-01-11T10:22:56.992Z,972.46
2023-01-11T10:23:56.352Z,972.44
2023-01-11T10:24:56.458Z,972.44
2023-01-11T10:25:56.402Z,972.43
2023-01-11T10:26:56.501Z,972.39
2023-01-11T10:27:56.486Z,972.41
2023-01-11T10:28:56.540Z,972.41
2023-01-11T10:29:56.660Z,972.40
2023-01-11T10:30:56.606Z,972.39
2023-01-11T10:31:56.653Z,972.41
2023-01-11T10:32:56.717Z,972.38
2023-01-11T10:33:56.747Z,972.36
2023-01-11T10:34:56.811Z,972.28
2023-01-11T10:35:56.845Z,972.31
2023-01-11T10:36:56.860Z,972.29
2023-01-11T10:37:56.939Z,972.28
2023-01-11T10:38:56.986Z,972.29
2023-01-11T10:39:57.092Z,972.28
2023-01-11T10:40:57.066Z,972.24
2023-01-11T10:41:57.130Z,972.24
2023-01-11T10:42:57.173Z,972.24
2023-01-11T10:43:57.199Z,972.25
2023-01-11T10:44:57.305Z,972.21
2023-01-11T10:45:57.354Z,972.20
2023-01-11T10:46:58.014Z,972.20
2023-01-11T10:47:57.384Z,972.25
2023-01-11T10:48:57.434Z,972.27
2023-01-11T10:49:57.528Z,972.24
2023-01-11T10:50:57.510Z,972.23
2023-01-11T10:51:57.590Z,972.20
2023-01-11T10:52:57.551Z,972.15
2023-01-11T10:53:57.632Z,972.11
2023-01-11T10:54:57.785Z,972.15
2023-01-11T10:55:57.739Z,972.20
2023-01-11T10:57:01.821Z,972.18
2023-01-11T10:58:01.674Z,972.14
2023-01-11T10:58:57.929Z,972.14
2023-01-11T10:59:57.880Z,972.12
2023-01-11T11:00:58.664Z,972.11
2023-01-11T11:01:59.015Z,972.10
2023-01-11T11:02:58.000Z,972.11
2023-01-11T11:03:58.070Z,972.09
2023-01-11T11:04:58.093Z,972.15
2023-01-11T11:05:58.149Z,972.14
2023-01-11T11:06:58.212Z,972.11
2023-01-11T11:07:58.343Z,972.13
2023-01-11T11:08:58.298Z,972.19
2023-01-11T11:09:58.369Z,972.10
2023-01-11T11:10:58.406Z,972.03
2023-01-11T11:11:58.510Z,971.99
2023-01-11T11:12:58.524Z,971.99
2023-01-11T11:13:58.616Z,971.97
2023-01-11T11:14:58.560Z,971.94
2023-01-11T11:15:58.733Z,971.90
2023-01-11T11:16:58.683Z,971.83
2023-01-11T11:17:58.719Z,971.86
2023-01-11T11:18:58.764Z,971.88
2023-01-11T11:19:58.820Z,971.88
2023-01-11T11:20:58.863Z,971.90
2023-01-11T11:21:58.875Z,971.91
2023-01-11T11:22:58.921Z,971.94
2023-01-11T11:23:58.968Z,971.93
2023-01-11T11:24:59.022Z,971.93
2023-01-11T11:25:59.045Z,971.96
2023-01-11T11:26:59.208Z,971.93
2023-01-11T11:27:59.129Z,971.94
2023-01-11T11:28:59.164Z,971.95
2023-01-11T11:29:59.238Z,971.93
2023-01-11T11:30:59.259Z,971.90
2023-01-11T11:31:59.352Z,971.94
2023-01-11T11:32:59.365Z,971.87
2023-01-11T11:33:59.413Z,971.89
2023-01-11T11:34:59.481Z,971.86
2023-01-11T11:35:59.521Z,971.82
2023-01-11T11:36:59.689Z,971.86
2023-01-11T11:37:59.608Z,971.91
2023-01-11T11:38:59.643Z,971.90
2023-01-11T11:39:59.698Z,971.84
2023-01-11T11:40:59.780Z,971.79
2023-01-11T11:41:59.903Z,971.78
2023-01-11T11:42:59.873Z,971.80
2023-01-11T11:43:59.910Z,971.84
2023-01-11T11:44:59.999Z,971.83
2023-01-11T11:46:00.024Z,971.77
2023-01-11T11:47:00.992Z,971.80
2023-01-11T11:48:00.062Z,971.77
2023-01-11T11:49:00.090Z,971.78
2023-01-11T11:50:00.170Z,971.76
2023-01-11T11:51:00.188Z,971.72
2023-01-11T11:52:00.249Z,971.73
2023-01-11T11:53:00.264Z,971.73
2023-01-11T11:54:00.339Z,971.69
2023-01-11T11:55:00.437Z,971.62
2023-01-11T11:56:00.386Z,971.66
2023-01-11T11:57:00.460Z,971.66
2023-01-11T11:58:00.516Z,971.60
2023-01-11T11:59:00.530Z,971.61
2023-01-11T12:00:00.656Z,971.56
2023-01-11T12:01:00.668Z,971.59
2023-01-11T12:02:00.767Z,971.61
2023-01-11T12:03:00.746Z,971.60
2023-01-11T12:04:00.884Z,971.57
2023-01-11T12:05:00.872Z,971.52
2023-01-11T12:06:00.999Z,971.52
2023-01-11T12:07:00.989Z,971.46
2023-01-11T12:08:00.981Z,971.49
2023-01-11T12:09:00.996Z,971.42
2023-01-11T12:10:01.049Z,971.44
2023-01-11T12:11:01.095Z,971.41
2023-01-11T12:12:01.274Z,971.35
2023-01-11T12:13:01.205Z,971.42
2023-01-11T12:14:01.252Z,971.41
2023-01-11T12:15:01.415Z,971.34
2023-01-11T12:16:01.366Z,971.35
2023-01-11T12:17:01.333Z,971.37
2023-01-11T12:18:01.381Z,971.40
2023-01-11T12:19:01.410Z,971.42
2023-01-11T12:20:01.464Z,971.42
2023-01-11T12:21:01.481Z,971.46
2023-01-11T12:22:01.531Z,971.43
2023-01-11T12:23:01.611Z,971.42
2023-01-11T12:24:01.629Z,971.43
2023-01-11T12:25:01.660Z,971.46
2023-01-11T12:26:01.711Z,971.43
2023-01-11T12:27:01.811Z,971.42
2023-01-11T12:28:01.818Z,971.40
2023-01-11T12:29:01.859Z,971.40
2023-01-11T12:30:01.884Z,971.41
2023-01-11T12:31:02.002Z,971.47
2023-01-11T12:32:01.983Z,971.44
2023-01-11T12:33:02.013Z,971.50
2023-01-11T12:34:02.078Z,971.47
2023-01-11T12:35:02.106Z,971.49
2023-01-11T12:36:03.391Z,971.52